createdAt,value
2018-11-26T00:00:36.466Z,98353.00
2018-11-26T00:03:09.497Z,98350.84
2018-11-26T00:05:39.692Z,98357.96
2018-11-26T00:08:27.538Z,98356.67
2018-11-26T00:12:03.331Z,98351.66
2018-11-26T00:14:32.564Z,98348.55
2018-11-26T00:17:01.765Z,98343.99
2018-11-26T00:19:31.015Z,98343.20
2018-11-26T00:22:02.060Z,98342.42
2018-11-26T00:24:31.294Z,98336.37
2018-11-26T00:27:00.539Z,98331.31
2018-11-26T00:29:29.700Z,98333.19
2018-11-26T00:31:58.890Z,98332.11
2018-11-26T00:34:28.225Z,98330.27
2018-11-26T00:36:57.441Z,98332.13
2018-11-26T00:39:26.636Z,98322.88
2018-11-26T00:41:55.885Z,98324.72
2018-11-26T00:44:25.055Z,98321.58
2018-11-26T00:46:54.462Z,98319.43
2018-11-26T00:49:23.711Z,98328.17
2018-11-26T00:51:52.924Z,98319.52
2018-11-26T00:54:22.138Z,98318.95
2018-11-26T00:56:51.360Z,98322.41
2018-11-26T00:59:20.626Z,98318.19
2018-11-26T01:01:50.003Z,98323.97
2018-11-26T01:04:19.225Z,98322.66
2018-11-26T01:06:48.424Z,98323.22
2018-11-26T01:09:17.637Z,98322.40
2018-11-26T01:11:47.077Z,98321.08
2018-11-26T01:14:16.360Z,98315.28
2018-11-26T01:16:45.517Z,98320.02
2018-11-26T01:19:14.672Z,98317.41
2018-11-26T01:21:43.844Z,98314.28
2018-11-26T01:24:13.080Z,98316.41
2018-11-26T01:26:42.293Z,98307.17
2018-11-26T01:29:11.552Z,98310.13
2018-11-26T01:31:40.700Z,98313.52
2018-11-26T01:34:09.908Z,98310.06
2018-11-26T01:36:39.330Z,98312.79
2018-11-26T01:39:09.575Z,98308.56
2018-11-26T01:41:38.828Z,98308.30
2018-11-26T01:44:08.032Z,98302.55
2018-11-26T01:46:37.328Z,98304.38
2018-11-26T01:49:06.620Z,98301.72
2018-11-26T01:51:35.883Z,98304.58
2018-11-26T01:54:05.105Z,98300.66
2018-11-26T01:56:34.275Z,98293.53
2018-11-26T01:59:03.472Z,98296.67
2018-11-26T02:01:32.752Z,98300.34
2018-11-26T02:04:02.071Z,98293.83
2018-11-26T02:06:31.294Z,98301.44
2018-11-26T02:09:00.477Z,98293.80
2018-11-26T02:11:29.696Z,98288.05
2018-11-26T02:13:58.939Z,98287.22
2018-11-26T02:16:28.235Z,98291.97
2018-11-26T02:18:57.882Z,98285.39
2018-11-26T02:21:27.058Z,98288.52
2018-11-26T02:23:56.284Z,98287.46
2018-11-26T02:26:25.746Z,98285.84
2018-11-26T02:28:55.112Z,98284.52
2018-11-26T02:31:24.297Z,98287.66
2018-11-26T02:33:53.499Z,98284.80
2018-11-26T02:36:22.776Z,98283.48
2018-11-26T02:38:52.052Z,98288.48
2018-11-26T02:41:21.229Z,98293.18
2018-11-26T02:43:50.547Z,98297.47
2018-11-26T02:46:21.176Z,98295.35
2018-11-26T02:48:50.464Z,98291.66
2018-11-26T02:51:19.945Z,98293.80
2018-11-26T02:53:49.142Z,98300.39
2018-11-26T02:56:18.408Z,98299.92
2018-11-26T02:58:47.626Z,98301.47
2018-11-26T03:01:16.822Z,98292.00
2018-11-26T03:03:46.104Z,98288.34
2018-11-26T03:06:15.565Z,98294.13
2018-11-26T03:08:44.781Z,98292.52
2018-11-26T03:11:14.003Z,98288.80
2018-11-26T03:13:43.189Z,98289.90
2018-11-26T03:16:12.566Z,98291.73
2018-11-26T03:18:41.797Z,98288.05
2018-11-26T03:21:11.044Z,98285.14
2018-11-26T03:23:40.294Z,98286.73
2018-11-26T03:26:09.564Z,98290.41
2018-11-26T03:28:39.364Z,98294.36
2018-11-26T03:31:08.915Z,98287.27
2018-11-26T03:33:38.205Z,98290.17
2018-11-26T03:36:07.492Z,98292.05
2018-11-26T03:38:58.070Z,98289.92
2018-11-26T03:41:27.501Z,98298.39
2018-11-26T03:43:56.741Z,98289.90
2018-11-26T03:46:25.928Z,98295.98
2018-11-26T03:50:24.308Z,98293.36
2018-11-26T03:52:53.593Z,98296.27
2018-11-26T03:55:22.771Z,98305.25
2018-11-26T03:57:51.945Z,98299.28
2018-11-26T04:00:21.445Z,98292.89
2018-11-26T04:02:50.594Z,98290.30
2018-11-26T04:05:19.902Z,98280.81
2018-11-26T04:07:49.928Z,98285.80
2018-11-26T04:10:19.130Z,98285.26
2018-11-26T04:12:48.413Z,98290.02
2018-11-26T04:15:17.645Z,98289.20
2018-11-26T04:17:46.956Z,98294.75
2018-11-26T04:20:16.252Z,98287.70
2018-11-26T04:22:45.639Z,98295.34
2018-11-26T04:25:17.319Z,98299.56
2018-11-26T04:27:46.558Z,98298.25
2018-11-26T04:30:15.814Z,98295.66
2018-11-26T04:32:44.992Z,98294.65
2018-11-26T04:35:14.339Z,98298.36
2018-11-26T04:37:43.567Z,98301.22
2018-11-26T04:40:12.798Z,98300.98
2018-11-26T04:42:42.003Z,98302.78
2018-11-26T04:45:11.325Z,98296.44
2018-11-26T04:47:41.175Z,98302.78
2018-11-26T04:50:11.548Z,98296.46
2018-11-26T04:52:40.933Z,98298.59
2018-11-26T04:55:11.325Z,98298.15
2018-11-26T04:57:42.667Z,98298.67
2018-11-26T05:00:11.703Z,98304.43
2018-11-26T05:02:40.888Z,98308.11
2018-11-26T05:05:11.440Z,98301.31
2018-11-26T05:07:40.661Z,98301.80
2018-11-26T05:10:11.578Z,98304.45
2018-11-26T05:12:40.842Z,98304.17
2018-11-26T05:15:12.198Z,98306.09
2018-11-26T05:17:41.370Z,98306.08
2018-11-26T05:20:14.473Z,98306.87
2018-11-26T05:22:43.726Z,98309.48
2018-11-26T05:25:13.090Z,98312.05
2018-11-26T05:27:42.367Z,98308.68
2018-11-26T05:30:12.637Z,98311.32
2018-11-26T05:32:42.160Z,98311.05
2018-11-26T05:35:16.028Z,98319.52
2018-11-26T05:37:45.248Z,98322.69
2018-11-26T05:40:15.285Z,98311.34
2018-11-26T05:42:45.280Z,98321.65
2018-11-26T05:45:15.706Z,98316.61
2018-11-26T05:47:45.669Z,98306.64
2018-11-26T05:50:15.962Z,98309.80
2018-11-26T05:52:45.255Z,98315.59
2018-11-26T05:55:17.218Z,98317.70
2018-11-26T05:57:47.046Z,98316.11
2018-11-26T06:00:26.354Z,98319.02
2018-11-26T06:02:55.733Z,98313.80
2018-11-26T06:05:25.064Z,98322.20
2018-11-26T06:07:54.358Z,98317.19
2018-11-26T06:10:23.788Z,98311.91
2018-11-26T06:12:53.045Z,98308.77
2018-11-26T06:15:22.312Z,98315.87
2018-11-26T06:17:51.998Z,98316.40
2018-11-26T06:20:21.166Z,98309.00
2018-11-26T06:22:50.436Z,98310.08
2018-11-26T06:25:20.844Z,98316.37
2018-11-26T06:27:50.643Z,98314.27
2018-11-26T06:30:20.480Z,98319.25
2018-11-26T06:32:49.736Z,98325.08
2018-11-26T06:35:21.951Z,98329.59
2018-11-26T06:37:51.190Z,98331.67
2018-11-26T06:40:21.151Z,98330.39
2018-11-26T06:42:50.398Z,98337.50
2018-11-26T06:45:22.025Z,98326.41
2018-11-26T06:47:52.175Z,98331.95
2018-11-26T06:50:22.050Z,98335.89
2018-11-26T06:52:51.441Z,98333.27
2018-11-26T06:55:21.739Z,98336.17
2018-11-26T06:57:50.954Z,98340.37
2018-11-26T07:00:21.074Z,98343.80
2018-11-26T07:02:50.328Z,98338.26
2018-11-26T07:05:21.671Z,98348.30
2018-11-26T07:07:50.926Z,98342.19
2018-11-26T07:10:21.639Z,98341.95
2018-11-26T07:12:51.390Z,98340.89
2018-11-26T07:15:21.968Z,98345.15
2018-11-26T07:17:51.549Z,98342.23
2018-11-26T07:20:22.379Z,98346.44
2018-11-26T07:22:51.682Z,98353.05
2018-11-26T07:25:21.874Z,98354.33
2018-11-26T07:27:53.672Z,98355.67
2018-11-26T07:30:25.214Z,98363.05
2018-11-26T07:32:54.489Z,98364.61
2018-11-26T07:35:23.892Z,98363.02
2018-11-26T07:37:53.226Z,98367.52
2018-11-26T07:40:31.516Z,98358.03
2018-11-26T07:43:09.935Z,98363.81
2018-11-26T07:45:45.963Z,98367.52
2018-11-26T07:48:23.473Z,98369.87
2018-11-26T07:50:53.090Z,98364.86
2018-11-26T07:53:22.549Z,98375.41
2018-11-26T07:55:52.022Z,98378.81
2018-11-26T07:58:21.632Z,98378.84
2018-11-26T08:00:51.257Z,98370.14
2018-11-26T08:03:20.840Z,98370.95
2018-11-26T08:05:50.346Z,98373.30
2018-11-26T08:08:19.773Z,98378.04
2018-11-26T08:10:49.249Z,98378.59
2018-11-26T08:13:19.123Z,98382.01
2018-11-26T08:15:48.522Z,98381.48
2018-11-26T08:21:38.753Z,98389.09
2018-11-26T08:24:08.154Z,98386.98
2018-11-26T08:26:37.995Z,98379.63
2018-11-26T08:29:10.785Z,98385.94
2018-11-26T08:31:41.699Z,98383.57
2018-11-26T08:34:11.316Z,98390.94
2018-11-26T08:36:44.383Z,98384.87
2018-11-26T08:39:19.485Z,98395.94
2018-11-26T08:41:54.451Z,98397.52
2018-11-26T08:44:30.474Z,98396.20
2018-11-26T08:47:08.266Z,98396.20
2018-11-26T08:49:42.979Z,98403.31
2018-11-26T08:52:40.406Z,98397.53
2018-11-26T08:55:12.721Z,98400.15
2018-11-26T08:57:42.691Z,98400.14
2018-11-26T09:00:14.649Z,98403.03
2018-11-26T09:02:48.846Z,98404.36
2018-11-26T09:05:24.233Z,98414.87
2018-11-26T09:07:53.341Z,98409.37
2018-11-26T09:10:30.741Z,98411.45
2018-11-26T09:13:01.912Z,98424.84
2018-11-26T09:15:33.803Z,98423.84
2018-11-26T09:18:03.870Z,98428.03
2018-11-26T09:20:34.845Z,98430.13
2018-11-26T09:23:04.821Z,98433.02
2018-11-26T09:25:35.598Z,98435.63
2018-11-26T09:28:06.102Z,98425.92
2018-11-26T09:30:42.622Z,98430.11
2018-11-26T09:33:14.194Z,98432.20
2018-11-26T09:35:44.942Z,98417.46
2018-11-26T09:38:17.355Z,98431.19
2018-11-26T09:40:49.021Z,98427.49
2018-11-26T09:43:18.674Z,98418.84
2018-11-26T09:45:52.124Z,98430.67
2018-11-26T09:48:29.819Z,98432.45
2018-11-26T09:51:14.122Z,98428.53
2018-11-26T09:53:49.070Z,98418.55
2018-11-26T09:56:25.151Z,98424.06
2018-11-26T09:58:55.743Z,98420.35
2018-11-26T10:01:28.937Z,98406.70
2018-11-26T10:04:00.815Z,98413.52
2018-11-26T10:06:31.362Z,98416.16
2018-11-26T10:09:00.895Z,98420.93
2018-11-26T10:11:36.658Z,98423.26
2018-11-26T10:14:08.904Z,98417.47
2018-11-26T10:16:40.722Z,98418.01
2018-11-26T10:19:11.909Z,98411.98
2018-11-26T10:21:42.345Z,98407.47
2018-11-26T10:24:13.009Z,98411.19
2018-11-26T10:26:42.888Z,98403.31
2018-11-26T10:29:12.924Z,98402.78
2018-11-26T10:31:44.488Z,98398.56
2018-11-26T10:34:14.511Z,98398.31
2018-11-26T10:36:44.832Z,98398.56
2018-11-26T10:39:14.327Z,98399.38
2018-11-26T10:41:46.040Z,98399.89
2018-11-26T10:44:15.600Z,98397.00
2018-11-26T10:46:45.139Z,98387.00
2018-11-26T10:49:18.284Z,98381.98
2018-11-26T10:52:01.171Z,98387.52
2018-11-26T10:54:31.712Z,98389.88
2018-11-26T10:57:01.183Z,98396.19
2018-11-26T10:59:30.543Z,98396.22
2018-11-26T11:02:07.117Z,98392.53
2018-11-26T11:04:38.277Z,98395.42
2018-11-26T11:07:09.059Z,98395.41
2018-11-26T11:09:38.595Z,98394.08
2018-11-26T11:12:10.423Z,98394.63
2018-11-26T11:14:40.670Z,98392.25
2018-11-26T11:17:10.687Z,98390.94
2018-11-26T11:19:41.932Z,98393.02
2018-11-26T11:22:11.652Z,98387.75
2018-11-26T11:24:41.434Z,98389.59
2018-11-26T11:27:11.139Z,98390.41
2018-11-26T11:29:40.790Z,98390.66
2018-11-26T11:32:10.314Z,98393.53
2018-11-26T11:34:39.823Z,98390.11
2018-11-26T11:37:09.604Z,98390.38
2018-11-26T11:39:39.033Z,98390.11
2018-11-26T11:42:08.721Z,98391.45
2018-11-26T11:44:38.272Z,98388.79
2018-11-26T11:47:07.734Z,98390.66
2018-11-26T11:49:37.283Z,98395.64
2018-11-26T11:52:06.679Z,98394.09
2018-11-26T11:54:36.198Z,98395.13
2018-11-26T11:57:05.937Z,98394.84
2018-11-26T11:59:35.413Z,98393.01
2018-11-26T12:02:04.916Z,98391.70
2018-11-26T12:04:35.483Z,98389.86
2018-11-26T12:07:05.019Z,98384.31
2018-11-26T12:09:34.466Z,98392.48
2018-11-26T12:15:17.006Z,98390.10
2018-11-26T12:17:48.090Z,98391.97
2018-11-26T12:20:18.167Z,98387.50
2018-11-26T12:22:48.650Z,98400.39
2018-11-26T12:25:19.282Z,98400.66
2018-11-26T12:27:50.064Z,98399.35
2018-11-26T12:30:34.887Z,98391.45
2018-11-26T12:33:26.587Z,98400.64
2018-11-26T12:35:59.225Z,98396.16
2018-11-26T12:38:36.386Z,98393.28
2018-11-26T12:41:16.437Z,98393.28
2018-11-26T12:43:49.387Z,98393.81
2018-11-26T12:46:19.309Z,98393.02
2018-11-26T12:48:52.727Z,98389.34
2018-11-26T12:51:22.527Z,98390.90
2018-11-26T12:56:48.652Z,98391.70
2018-11-26T12:59:18.832Z,98388.02
2018-11-26T13:01:50.126Z,98382.72
2018-11-26T13:04:20.684Z,98389.31
2018-11-26T13:06:54.423Z,98390.90
2018-11-26T13:09:24.469Z,98393.81
2018-11-26T13:11:58.053Z,98391.97
2018-11-26T13:14:40.216Z,98391.94
2018-11-26T13:17:10.314Z,98390.90
2018-11-26T13:19:42.228Z,98394.09
2018-11-26T13:22:13.499Z,98381.47
2018-11-26T13:24:43.358Z,98386.19
2018-11-26T13:27:12.830Z,98390.66
2018-11-26T13:29:42.410Z,98395.67
2018-11-26T13:32:11.996Z,98397.78
2018-11-26T13:37:51.304Z,98407.52
2018-11-26T13:40:21.231Z,98410.13
2018-11-26T13:42:51.605Z,98416.20
2018-11-26T13:45:35.247Z,98417.25
2018-11-26T13:48:09.452Z,98431.97
2018-11-26T13:50:43.653Z,98429.83
2018-11-26T13:53:16.801Z,98435.14
2018-11-26T13:55:49.043Z,98424.89
2018-11-26T13:58:22.123Z,98434.34
2018-11-26T14:00:53.541Z,98439.61
2018-11-26T14:03:23.520Z,98430.36
2018-11-26T14:05:54.946Z,98441.67
2018-11-26T14:08:25.726Z,98442.98
2018-11-26T14:10:57.031Z,98445.59
2018-11-26T14:13:27.650Z,98453.44
2018-11-26T14:15:59.060Z,98451.09
2018-11-26T14:24:33.189Z,98446.37
2018-11-26T14:27:08.428Z,98449.53
2018-11-26T14:29:39.057Z,98456.06
2018-11-26T14:32:09.836Z,98449.98
2018-11-26T14:34:39.962Z,98454.70
2018-11-26T14:37:13.237Z,98451.09
2018-11-26T14:39:45.509Z,98451.82
2018-11-26T14:45:15.137Z,98453.95
2018-11-26T14:47:47.394Z,98453.42
2018-11-26T14:50:17.692Z,98452.41
2018-11-26T14:52:48.169Z,98455.30
2018-11-26T14:55:28.220Z,98459.45
2018-11-26T14:58:09.816Z,98455.51
2018-11-26T15:00:43.307Z,98460.00
2018-11-26T15:06:10.757Z,98450.02
2018-11-26T15:08:41.565Z,98455.78
2018-11-26T15:11:11.501Z,98456.09
2018-11-26T15:13:41.444Z,98459.50
2018-11-26T15:16:11.084Z,98463.96
2018-11-26T15:18:41.823Z,98469.94
2018-11-26T15:21:11.810Z,98470.01
2018-11-26T15:32:47.619Z,98476.55
2018-11-26T15:35:20.914Z,98479.98
2018-11-26T15:37:50.811Z,98483.20
2018-11-26T15:40:21.365Z,98488.69
2018-11-26T15:42:53.194Z,98480.80
2018-11-26T15:45:29.185Z,98485.52
2018-11-26T15:48:01.038Z,98486.81
2018-11-26T15:50:35.303Z,98481.05
2018-11-26T15:53:09.958Z,98480.25
2018-11-26T15:55:39.890Z,98479.20
2018-11-26T15:58:10.971Z,98483.92
2018-11-26T16:00:41.887Z,98452.85
2018-11-26T16:03:13.047Z,98492.09
2018-11-26T16:05:42.827Z,98483.38
2018-11-26T16:08:23.153Z,98491.03
2018-11-26T16:10:54.694Z,98486.30
2018-11-26T16:13:27.691Z,98490.78
2018-11-26T16:16:01.379Z,98495.20
2018-11-26T16:18:32.178Z,98495.49
2018-11-26T16:21:03.263Z,98499.69
2018-11-26T16:23:33.486Z,98502.33
2018-11-26T16:26:04.299Z,98515.46
2018-11-26T16:28:34.509Z,98509.66
2018-11-26T16:31:05.299Z,98516.75
2018-11-26T16:36:36.314Z,98509.66
2018-11-26T16:39:10.026Z,98512.59
2018-11-26T16:41:39.965Z,98511.25
2018-11-26T16:44:09.931Z,98508.63
2018-11-26T16:46:42.106Z,98517.52
2018-11-26T16:49:12.763Z,98517.55
2018-11-26T16:51:48.092Z,98529.87
2018-11-26T16:54:23.764Z,98523.84
2018-11-26T16:59:53.877Z,98526.43
2018-11-26T17:02:23.531Z,98530.11
2018-11-26T17:04:54.449Z,98532.13
2018-11-26T17:07:33.546Z,98530.61
2018-11-26T17:10:15.916Z,98532.40
2018-11-26T17:12:46.119Z,98539.30
2018-11-26T17:15:17.319Z,98539.50
2018-11-26T17:17:47.728Z,98538.72
2018-11-26T17:20:26.054Z,98537.44
2018-11-26T17:22:56.529Z,98542.41
2018-11-26T17:25:26.046Z,98539.52
2018-11-26T17:27:55.664Z,98549.02
2018-11-26T17:30:26.472Z,98545.53
2018-11-26T17:32:58.674Z,98543.99
2018-11-26T17:35:29.082Z,98547.20
2018-11-26T17:37:58.521Z,98547.98
2018-11-26T17:40:36.218Z,98546.09
2018-11-26T17:43:10.425Z,98548.23
2018-11-26T17:47:04.513Z,98554.04
2018-11-26T17:49:36.133Z,98555.55
2018-11-26T17:52:06.918Z,98560.02
2018-11-26T17:54:37.871Z,98562.44
2018-11-26T17:57:09.521Z,98559.20
2018-11-26T17:59:41.622Z,98564.21
2018-11-26T18:02:11.004Z,98573.34
2018-11-26T18:04:40.677Z,98571.05
2018-11-26T18:07:10.993Z,98576.03
2018-11-26T18:09:40.807Z,98574.97
2018-11-26T18:12:10.287Z,98581.39
2018-11-26T18:14:39.896Z,98581.45
2018-11-26T18:17:10.867Z,98575.13
2018-11-26T18:19:41.395Z,98588.73
2018-11-26T18:22:18.113Z,98585.78
2018-11-26T18:24:47.769Z,98586.51
2018-11-26T18:27:18.464Z,98597.81
2018-11-26T18:29:48.868Z,98590.98
2018-11-26T18:32:19.154Z,98602.84
2018-11-26T18:34:49.740Z,98605.69
2018-11-26T18:37:19.082Z,98600.74
2018-11-26T18:39:49.104Z,98598.94
2018-11-26T18:42:20.582Z,98601.23
2018-11-26T18:44:50.124Z,98607.83
2018-11-26T18:47:21.517Z,98610.70
2018-11-26T18:49:50.914Z,98613.36
2018-11-26T18:52:20.447Z,98604.23
2018-11-26T18:54:51.272Z,98613.91
2018-11-26T18:57:20.815Z,98618.91
2018-11-26T18:59:53.020Z,98618.16
2018-11-26T19:02:23.577Z,98617.25
2018-11-26T19:04:54.202Z,98622.73
2018-11-26T19:07:24.428Z,98627.89
2018-11-26T19:09:54.507Z,98627.59
2018-11-26T19:12:23.915Z,98628.00
2018-11-26T19:14:54.567Z,98628.14
2018-11-26T19:17:23.928Z,98631.76
2018-11-26T19:19:53.202Z,98642.23
2018-11-26T19:22:22.591Z,98636.45
2018-11-26T19:24:52.308Z,98644.25
2018-11-26T19:27:22.460Z,98647.05
2018-11-26T19:29:53.892Z,98640.98
2018-11-26T19:32:24.420Z,98642.52
2018-11-26T19:34:55.377Z,98644.66
2018-11-26T19:37:24.855Z,98647.48
2018-11-26T19:39:54.384Z,98648.11
2018-11-26T19:42:31.011Z,98636.55
2018-11-26T19:45:00.629Z,98658.92
2018-11-26T19:47:30.241Z,98656.73
2018-11-26T19:50:02.327Z,98660.67
2018-11-26T19:52:29.080Z,98657.30
2018-11-26T19:54:58.436Z,98657.95
2018-11-26T19:57:27.805Z,98662.13
2018-11-26T19:59:58.841Z,98660.06
2018-11-26T20:02:28.230Z,98664.11
2018-11-26T20:05:01.338Z,98670.39
2018-11-26T20:07:30.938Z,98674.84
2018-11-26T20:10:00.792Z,98674.92
2018-11-26T20:12:30.159Z,98680.95
2018-11-26T20:14:59.798Z,98679.16
2018-11-26T20:17:30.662Z,98682.64
2018-11-26T20:20:00.241Z,98688.56
2018-11-26T20:22:29.872Z,98692.05
2018-11-26T20:25:00.388Z,98685.29
2018-11-26T20:27:29.787Z,98690.41
2018-11-26T20:29:59.451Z,98685.68
2018-11-26T20:32:30.320Z,98680.69
2018-11-26T20:34:58.507Z,98684.98
2018-11-26T20:37:29.394Z,98691.76
2018-11-26T20:40:09.655Z,98700.77
2018-11-26T20:42:42.950Z,98698.69
2018-11-26T20:45:15.802Z,98698.44
2018-11-26T20:47:48.076Z,98708.78
2018-11-26T20:50:19.250Z,98704.92
2018-11-26T20:52:50.147Z,98707.72
2018-11-26T20:55:23.958Z,98709.69
2018-11-26T20:57:54.724Z,98711.99
2018-11-26T21:00:27.577Z,98719.60
2018-11-26T21:03:04.251Z,98715.74
2018-11-26T21:05:33.886Z,98722.73
2018-11-26T21:08:03.406Z,98722.80
2018-11-26T21:10:32.865Z,98717.30
2018-11-26T21:13:02.502Z,98720.08
2018-11-26T21:15:33.316Z,98720.03
2018-11-26T21:18:07.361Z,98718.52
2018-11-26T21:20:38.709Z,98716.51
2018-11-26T21:23:11.616Z,98720.95
2018-11-26T21:25:41.412Z,98721.94
2018-11-26T21:28:13.433Z,98728.64
2018-11-26T21:30:43.258Z,98722.80
2018-11-26T21:33:13.767Z,98726.96
2018-11-26T21:35:43.311Z,98731.84
2018-11-26T21:38:13.214Z,98728.42
2018-11-26T21:40:47.268Z,98731.84
2018-11-26T21:43:18.267Z,98734.02
2018-11-26T21:45:58.606Z,98737.38
2018-11-26T21:48:28.945Z,98740.32
2018-11-26T21:50:58.878Z,98741.20
2018-11-26T21:53:28.777Z,98744.58
2018-11-26T21:55:58.087Z,98741.08
2018-11-26T21:58:35.592Z,98745.70
2018-11-26T22:01:08.564Z,98740.69
2018-11-26T22:03:39.178Z,98743.02
2018-11-26T22:06:08.595Z,98748.05
2018-11-26T22:08:38.093Z,98755.37
2018-11-26T22:11:09.178Z,98751.78
2018-11-26T22:13:38.860Z,98761.80
2018-11-26T22:16:08.280Z,98768.56
2018-11-26T22:18:37.922Z,98759.73
2018-11-26T22:21:07.464Z,98769.97
2018-11-26T22:23:36.878Z,98774.15
2018-11-26T22:26:06.445Z,98777.82
2018-11-26T22:28:36.437Z,98776.42
2018-11-26T22:31:09.009Z,98787.13
2018-11-26T22:33:38.521Z,98781.33
2018-11-26T22:36:08.884Z,98787.55
2018-11-26T22:38:38.907Z,98790.88
2018-11-26T22:41:08.252Z,98787.33
2018-11-26T22:43:39.149Z,98788.09
2018-11-26T22:46:09.337Z,98790.50
2018-11-26T22:48:38.742Z,98798.61
2018-11-26T22:51:08.200Z,98794.98
2018-11-26T22:53:37.574Z,98789.84
2018-11-26T22:56:08.000Z,98798.33
2018-11-26T22:58:37.321Z,98802.73
2018-11-26T23:01:08.033Z,98800.56
2018-11-26T23:03:37.481Z,98797.47
2018-11-26T23:06:08.171Z,98799.33
2018-11-26T23:08:37.567Z,98800.95
2018-11-26T23:11:07.586Z,98794.17
2018-11-26T23:13:36.919Z,98800.95
2018-11-26T23:16:07.418Z,98797.77
2018-11-26T23:18:36.971Z,98806.27
2018-11-26T23:21:06.403Z,98801.83
2018-11-26T23:23:35.874Z,98802.30
2018-11-26T23:26:05.496Z,98806.34
2018-11-26T23:28:35.554Z,98802.16
2018-11-26T23:31:05.608Z,98804.57
2018-11-26T23:33:39.873Z,98802.45
2018-11-26T23:36:09.229Z,98805.62
2018-11-26T23:38:39.524Z,98810.16
2018-11-26T23:41:09.234Z,98811.03
2018-11-26T23:43:38.691Z,98808.45
2018-11-26T23:46:09.772Z,98807.95
2018-11-26T23:48:40.586Z,98817.52
2018-11-26T23:51:10.431Z,98817.52
2018-11-26T23:53:39.797Z,98819.60
2018-11-26T23:56:09.253Z,98826.50
2018-11-26T23:58:39.402Z,98819.58
